Time;durP1;ratioP1;P1;durP2;ratioP2;P2;SDS_P1;SDS_P2;PMS_P1;PMS_P2;Temp;Humidity;BMP_temperature;BMP_pressure;BME280_temperature;BME280_humidity;BME280_pressure;Samples;Min_cycle;Max_cycle;Signal;HPM_P1;HPM_P2
2023/08/16 00:01:16;;;;;;;6.05;3.42;;;;;;;21.63;63.62;101799.66;5003051;28;20040;-70
2023/08/16 00:03:43;;;;;;;6.72;3.60;;;;;;;21.65;63.60;101799.56;5003645;28;20037;-69
2023/08/16 00:06:10;;;;;;;7.05;3.92;;;;;;;21.63;63.85;101805.03;5007944;28;20046;-69
2023/08/16 00:08:36;;;;;;;4.95;4.10;;;;;;;21.62;63.51;101800.63;5006457;28;20025;-69
2023/08/16 00:11:02;;;;;;;6.25;3.50;;;;;;;21.55;64.42;101806.56;5006550;28;20032;-69
2023/08/16 00:13:28;;;;;;;8.45;4.18;;;;;;;21.60;63.56;101802.56;5004983;28;20026;-69
2023/08/16 00:15:53;;;;;;;5.53;3.58;;;;;;;21.57;64.53;101800.09;5008170;28;20123;-69
2023/08/16 00:18:18;;;;;;;7.03;3.88;;;;;;;21.60;64.60;101804.41;5005979;28;20382;-69
2023/08/16 00:20:44;;;;;;;7.32;4.38;;;;;;;21.67;63.08;101807.50;5007554;28;20041;-69
2023/08/16 00:23:09;;;;;;;9.45;4.38;;;;;;;21.70;62.45;101805.47;5002626;28;20029;-69
2023/08/16 00:25:34;;;;;;;6.35;4.30;;;;;;;21.71;63.12;101812.56;5003146;28;20086;-69
2023/08/16 00:27:59;;;;;;;5.68;4.18;;;;;;;21.75;65.40;101811.38;5005798;28;20022;-69
2023/08/16 00:30:25;;;;;;;5.57;4.45;;;;;;;21.77;63.65;101811.25;5006972;28;20486;-69
2023/08/16 00:32:50;;;;;;;5.45;3.90;;;;;;;21.69;63.57;101811.81;5008430;28;20057;-69
2023/08/16 00:35:15;;;;;;;6.78;3.50;;;;;;;21.59;64.81;101808.94;5007680;28;20026;-69
2023/08/16 00:37:41;;;;;;;4.95;3.53;;;;;;;21.51;65.48;101807.75;4990063;28;20052;-69
2023/08/16 00:40:07;;;;;;;3.90;3.30;;;;;;;21.50;65.79;101806.91;5006358;28;20076;-69
2023/08/16 00:42:33;;;;;;;4.40;3.25;;;;;;;21.37;65.93;101814.97;5001299;28;20274;-69
2023/08/16 00:44:58;;;;;;;4.68;3.92;;;;;;;21.14;66.94;101812.97;5012617;28;20049;-69
2023/08/16 00:47:23;;;;;;;4.95;3.90;;;;;;;21.05;67.14;101810.94;5007573;28;20683;-69
2023/08/16 00:49:49;;;;;;;5.07;3.90;;;;;;;21.08;67.02;101814.28;5015300;28;20029;-69
2023/08/16 00:52:14;;;;;;;8.38;4.20;;;;;;;21.17;66.97;101820.84;5008268;28;20034;-69
2023/08/16 00:54:39;;;;;;;7.93;4.20;;;;;;;21.24;67.54;101829.34;5007976;28;20385;-69
2023/08/16 00:57:05;;;;;;;5.00;4.00;;;;;;;21.27;67.01;101830.00;5012167;28;20088;-69
2023/08/16 00:59:30;;;;;;;7.07;4.45;;;;;;;21.20;66.61;101828.69;5011283;28;20037;-69
2023/08/16 01:01:56;;;;;;;7.13;4.55;;;;;;;21.22;66.26;101833.97;5008205;28;20390;-72
2023/08/16 01:04:21;;;;;;;7.30;4.18;;;;;;;21.30;66.00;101827.06;5015481;28;20033;-69
2023/08/16 01:06:47;;;;;;;7.28;4.25;;;;;;;21.34;66.58;101830.44;5006084;23;20058;-66
2023/08/16 01:09:13;;;;;;;6.72;4.22;;;;;;;21.21;66.64;101822.31;4994968;28;20164;-66
2023/08/16 01:11:45;;;;;;;8.73;5.07;;;;;;;21.18;67.13;101819.03;4986799;28;20116;-66
2023/08/16 01:14:15;;;;;;;6.55;5.10;;;;;;;21.12;67.21;101825.66;4986982;28;20026;-66
2023/08/16 01:16:44;;;;;;;6.70;4.75;;;;;;;21.10;67.14;101835.66;4997304;28;20030;-66
2023/08/16 01:19:10;;;;;;;7.13;5.05;;;;;;;20.91;67.94;101836.06;4998115;28;20037;-66
2023/08/16 01:21:46;;;;;;;8.45;5.07;;;;;;;20.90;68.03;101834.34;4991901;28;20026;-67
2023/08/16 01:24:22;;;;;;;8.10;5.15;;;;;;;20.94;68.27;101845.72;4991473;28;20121;-67
2023/08/16 01:26:48;;;;;;;9.68;5.55;;;;;;;20.82;69.18;101847.44;4992135;28;20504;-66
2023/08/16 01:29:16;;;;;;;5.75;5.03;;;;;;;20.83;68.43;101838.41;4990476;28;20029;-66
2023/08/16 01:31:42;;;;;;;8.20;5.18;;;;;;;20.89;69.93;101838.88;4990635;28;20225;-66
2023/08/16 01:34:07;;;;;;;6.57;5.10;;;;;;;20.85;68.65;101852.63;4992130;28;20080;-66
2023/08/16 01:36:32;;;;;;;6.35;5.65;;;;;;;20.87;68.70;101856.06;4991621;28;20033;-66
2023/08/16 01:38:58;;;;;;;6.95;5.03;;;;;;;20.91;69.15;101854.03;4998113;28;20049;-66
2023/08/16 01:41:30;;;;;;;7.20;5.22;;;;;;;20.85;69.21;101858.00;4996705;28;20036;-67
2023/08/16 01:43:56;;;;;;;9.07;5.93;;;;;;;20.85;68.30;101860.69;4988157;28;20080;-67
2023/08/16 01:46:22;;;;;;;7.03;4.97;;;;;;;20.93;68.63;101852.94;4989795;28;20037;-66
2023/08/16 01:48:48;;;;;;;5.75;5.00;;;;;;;21.00;68.77;101853.41;4997490;28;20069;-66
2023/08/16 01:51:15;;;;;;;8.93;4.95;;;;;;;21.01;69.03;101847.91;4977455;28;20038;-67
2023/08/16 01:53:40;;;;;;;6.00;4.85;;;;;;;21.01;68.39;101849.75;4993209;28;20507;-66
2023/08/16 01:56:05;;;;;;;6.70;5.55;;;;;;;20.97;69.08;101849.09;4992991;28;20030;-66
2023/08/16 01:58:31;;;;;;;8.88;5.38;;;;;;;20.91;68.49;101844.13;4989250;28;21678;-66
2023/08/16 02:00:56;;;;;;;6.82;4.97;;;;;;;20.92;68.52;101845.00;4993599;28;20053;-66
2023/08/16 02:03:21;;;;;;;8.27;5.72;;;;;;;20.75;69.09;101849.69;4990901;28;20082;-66
2023/08/16 02:05:46;;;;;;;6.97;5.78;;;;;;;20.65;69.88;101856.63;4991565;28;20049;-66
2023/08/16 02:08:12;;;;;;;8.00;5.07;;;;;;;20.70;69.25;101859.00;4986582;28;20022;-66
2023/08/16 02:10:38;;;;;;;6.18;5.30;;;;;;;20.69;69.05;101858.13;4997034;28;20064;-66
2023/08/16 02:13:03;;;;;;;7.13;5.57;;;;;;;20.60;69.68;101859.59;4993722;28;20038;-66
2023/08/16 02:15:28;;;;;;;8.43;5.68;;;;;;;20.55;69.76;101863.56;4988967;28;20401;-66
2023/08/16 02:17:54;;;;;;;8.57;5.47;;;;;;;20.60;68.47;101861.44;4988745;28;20722;-66
2023/08/16 02:20:19;;;;;;;8.02;5.85;;;;;;;20.64;69.56;101854.91;4986597;28;20027;-66
2023/08/16 02:22:44;;;;;;;8.43;5.70;;;;;;;20.71;68.26;101855.38;4986614;28;20023;-66
2023/08/16 02:25:11;;;;;;;9.27;5.53;;;;;;;20.71;67.97;101856.22;4989706;28;20034;-65
2023/08/16 02:27:36;;;;;;;7.88;5.70;;;;;;;20.68;69.24;101856.41;4988022;28;20030;-66
2023/08/16 02:30:02;;;;;;;7.38;5.25;;;;;;;20.69;68.10;101855.44;4969803;28;20125;-65
2023/08/16 02:32:27;;;;;;;8.93;5.75;;;;;;;20.68;67.21;101867.16;4989240;28;20041;-66
2023/08/16 02:34:53;;;;;;;9.50;6.53;;;;;;;20.64;67.07;101868.34;4991045;28;20033;-66
2023/08/16 02:37:18;;;;;;;9.05;6.20;;;;;;;20.60;69.89;101862.28;4988836;28;20456;-65
2023/08/16 02:39:44;;;;;;;6.95;6.25;;;;;;;20.61;68.97;101861.34;4990229;28;20034;-66
2023/08/16 02:42:09;;;;;;;8.23;5.95;;;;;;;20.59;69.03;101867.78;4988898;28;20516;-66
2023/08/16 02:44:34;;;;;;;9.57;6.43;;;;;;;20.44;69.27;101853.50;4986672;28;20030;-65
2023/08/16 02:47:00;;;;;;;7.28;6.15;;;;;;;20.36;69.73;101845.06;4991530;28;20347;-65
2023/08/16 02:49:25;;;;;;;9.35;6.30;;;;;;;20.28;69.09;101848.25;4987436;28;20034;-66
2023/08/16 02:51:50;;;;;;;9.02;7.15;;;;;;;20.13;68.77;101847.41;4986682;28;20053;-66
2023/08/16 02:54:15;;;;;;;8.40;6.50;;;;;;;20.13;70.03;101834.00;4987685;28;20045;-65
2023/08/16 02:56:41;;;;;;;8.65;6.28;;;;;;;20.13;68.68;101843.88;4990960;28;20026;-65
2023/08/16 02:59:12;;;;;;;7.68;6.32;;;;;;;20.13;68.41;101850.09;4989549;28;20038;-65
2023/08/16 03:01:37;;;;;;;9.70;6.20;;;;;;;20.20;68.10;101847.06;4986710;28;20042;-65
2023/08/16 03:04:02;;;;;;;9.93;6.72;;;;;;;20.21;68.41;101854.13;4993849;28;20038;-65
2023/08/16 03:06:28;;;;;;;7.82;6.57;;;;;;;20.11;68.74;101845.81;4986323;28;20073;-66
2023/08/16 03:08:53;;;;;;;11.30;7.00;;;;;;;20.13;69.55;101851.94;4990218;28;20096;-66
2023/08/16 03:11:18;;;;;;;10.13;7.00;;;;;;;20.09;69.38;101847.72;4991587;28;20073;-65
2023/08/16 03:13:43;;;;;;;8.07;6.35;;;;;;;20.12;68.50;101855.59;4991735;28;20025;-65
2023/08/16 03:16:09;;;;;;;11.75;6.97;;;;;;;20.14;68.80;101859.03;4983933;28;20607;-65
2023/08/16 03:18:34;;;;;;;9.63;6.72;;;;;;;19.99;69.47;101860.00;4990007;28;20535;-66
2023/08/16 03:20:59;;;;;;;8.07;6.72;;;;;;;20.00;69.24;101856.34;4984653;28;20273;-65
2023/08/16 03:23:25;;;;;;;10.05;7.13;;;;;;;20.06;71.13;101859.53;4986990;28;20022;-65
2023/08/16 03:25:50;;;;;;;9.38;6.38;;;;;;;20.09;69.34;101856.63;4986999;28;20058;-66
2023/08/16 03:28:15;;;;;;;8.35;6.88;;;;;;;20.12;68.55;101863.63;4988832;28;20559;-66
2023/08/16 03:30:40;;;;;;;9.63;6.35;;;;;;;20.16;69.59;101861.63;4987454;28;20030;-66
2023/08/16 03:33:06;;;;;;;10.02;7.05;;;;;;;20.18;70.12;101857.88;4994618;28;20029;-66
2023/08/16 03:35:31;;;;;;;8.25;6.35;;;;;;;20.20;69.07;101858.66;4987998;28;20022;-66
2023/08/16 03:37:56;;;;;;;9.75;7.28;;;;;;;20.18;69.15;101854.31;4987449;28;20030;-65
2023/08/16 03:40:22;;;;;;;10.48;7.55;;;;;;;19.97;70.01;101862.81;4989879;28;20044;-65
2023/08/16 03:42:47;;;;;;;10.05;7.05;;;;;;;19.66;71.09;101861.16;4988541;28;20033;-65
2023/08/16 03:45:12;;;;;;;11.80;7.45;;;;;;;19.61;71.69;101864.13;4987711;28;20088;-65
2023/08/16 03:47:38;;;;;;;10.07;6.72;;;;;;;19.74;71.77;101869.59;4990235;28;20037;-66
2023/08/16 03:50:04;;;;;;;10.55;7.30;;;;;;;19.80;71.10;101868.34;4989352;28;20065;-65
2023/08/16 03:52:30;;;;;;;9.98;7.90;;;;;;;19.82;70.86;101867.31;4984736;28;20030;-66
2023/08/16 03:54:55;;;;;;;9.07;7.00;;;;;;;19.86;69.79;101868.84;4991745;28;20038;-65
2023/08/16 03:57:23;;;;;;;9.23;7.50;;;;;;;19.75;71.21;101874.00;4989892;28;20041;-66
2023/08/16 03:59:52;;;;;;;7.65;6.68;;;;;;;19.64;71.53;101878.34;4992383;28;20030;-66
2023/08/16 04:02:19;;;;;;;8.38;7.18;;;;;;;19.65;71.88;101880.06;4993450;28;20035;-65
2023/08/16 04:04:45;;;;;;;12.00;7.22;;;;;;;19.68;70.74;101885.22;4991391;28;20042;-66
2023/08/16 04:07:10;;;;;;;10.05;6.75;;;;;;;19.77;71.09;101877.47;4986622;28;20054;-66
2023/08/16 04:09:36;;;;;;;8.85;7.18;;;;;;;19.67;70.93;101884.34;4993648;28;20393;-66
2023/08/16 04:12:01;;;;;;;11.15;7.30;;;;;;;19.66;70.96;101873.72;4986835;28;20054;-65
2023/08/16 04:14:26;;;;;;;9.68;7.00;;;;;;;19.72;71.10;101876.88;4988790;28;20057;-66
2023/08/16 04:16:52;;;;;;;9.15;6.68;;;;;;;19.81;71.77;101875.44;4992527;28;20014;-66
2023/08/16 04:19:17;;;;;;;10.63;7.63;;;;;;;19.88;70.58;101882.16;4991013;28;22422;-66
2023/08/16 04:21:42;;;;;;;9.95;7.55;;;;;;;19.86;70.32;101884.06;4990296;28;20054;-66
2023/08/16 04:24:07;;;;;;;9.55;6.65;;;;;;;19.91;69.71;101886.47;4985939;28;20030;-66
2023/08/16 04:26:33;;;;;;;9.57;7.57;;;;;;;19.95;68.82;101893.38;4987967;28;20026;-66
2023/08/16 04:28:58;;;;;;;8.45;7.43;;;;;;;19.86;69.46;101890.31;4989783;28;20021;-66
2023/08/16 04:31:23;;;;;;;12.27;7.57;;;;;;;19.85;68.88;101893.94;4992611;28;20032;-66
2023/08/16 04:33:49;;;;;;;7.65;6.65;;;;;;;19.85;69.26;101896.63;4988592;28;20109;-65
2023/08/16 04:36:16;;;;;;;9.38;6.85;;;;;;;19.82;70.54;101891.47;4988874;28;20041;-65
2023/08/16 04:38:41;;;;;;;8.45;6.85;;;;;;;19.82;71.20;101888.78;4987137;28;20340;-65
2023/08/16 04:41:06;;;;;;;10.52;7.00;;;;;;;19.69;70.47;101898.56;4992764;28;20034;-65
2023/08/16 04:43:32;;;;;;;11.07;7.15;;;;;;;19.64;69.78;101894.44;4985635;28;20026;-65
2023/08/16 04:45:57;;;;;;;9.52;6.63;;;;;;;19.67;70.69;101897.75;4990465;28;20460;-65
2023/08/16 04:48:22;;;;;;;8.45;6.90;;;;;;;19.65;70.21;101899.69;4999032;28;20026;-65
2023/08/16 04:50:47;;;;;;;10.05;6.93;;;;;;;19.67;71.21;101896.91;4995978;28;20022;-65
2023/08/16 04:53:13;;;;;;;9.93;7.13;;;;;;;19.65;70.54;101888.97;4988373;28;20058;-66
2023/08/16 04:55:38;;;;;;;11.50;7.00;;;;;;;19.66;70.71;101881.78;5003508;28;20036;-66
2023/08/16 04:58:03;;;;;;;9.57;7.65;;;;;;;19.63;72.03;101890.84;4989974;28;20056;-66
2023/08/16 05:00:28;;;;;;;8.73;6.75;;;;;;;19.61;70.92;101895.47;5002455;28;20075;-66
2023/08/16 05:02:54;;;;;;;11.88;6.97;;;;;;;19.64;70.07;101897.13;4991299;28;20028;-66
2023/08/16 05:05:19;;;;;;;9.23;6.32;;;;;;;19.80;69.24;101896.06;4999232;28;20097;-66
2023/08/16 05:07:44;;;;;;;7.63;6.25;;;;;;;19.88;69.44;101899.13;4989888;28;20501;-66
2023/08/16 05:10:10;;;;;;;10.50;7.47;;;;;;;19.78;71.95;101903.34;4997304;28;20079;-66
2023/08/16 05:12:35;;;;;;;7.75;6.32;;;;;;;19.71;71.53;101902.00;4998569;28;20058;-66
2023/08/16 05:15:00;;;;;;;9.13;6.80;;;;;;;19.66;71.95;101905.91;4987700;28;20033;-66
2023/08/16 05:17:26;;;;;;;11.60;7.30;;;;;;;19.70;70.43;101902.94;4995542;28;20030;-66
2023/08/16 05:19:52;;;;;;;8.68;6.78;;;;;;;19.71;70.21;101910.03;4989683;28;20061;-66
2023/08/16 05:22:19;;;;;;;9.82;6.38;;;;;;;19.73;70.63;101900.09;4988075;28;20773;-66
2023/08/16 05:24:44;;;;;;;8.35;6.65;;;;;;;19.74;69.86;101912.53;4992484;28;20110;-66
2023/08/16 05:27:12;;;;;;;9.10;6.65;;;;;;;19.71;69.98;101917.22;4987398;28;20117;-66
2023/08/16 05:29:39;;;;;;;10.20;6.20;;;;;;;19.81;71.07;101924.59;4988922;28;20022;-66
2023/08/16 05:32:04;;;;;;;8.48;6.10;;;;;;;19.84;69.67;101924.44;4990884;28;20484;-66
2023/08/16 05:34:30;;;;;;;9.05;5.72;;;;;;;19.90;69.10;101933.91;4987991;28;20073;-66
2023/08/16 05:36:55;;;;;;;6.43;5.60;;;;;;;19.91;68.77;101935.66;4987036;28;20034;-66
2023/08/16 05:39:20;;;;;;;8.82;5.45;;;;;;;19.95;68.72;101922.91;4995745;28;20030;-66
2023/08/16 05:41:45;;;;;;;8.55;6.18;;;;;;;19.96;69.70;101924.63;4983536;28;20453;-66
2023/08/16 05:44:11;;;;;;;8.10;5.93;;;;;;;19.97;69.98;101915.63;4985266;28;20028;-66
2023/08/16 05:46:36;;;;;;;7.10;6.03;;;;;;;19.99;70.95;101925.28;4987423;28;20109;-66
2023/08/16 05:49:01;;;;;;;7.10;5.40;;;;;;;20.07;68.63;101928.38;4992782;28;20018;-66
2023/08/16 05:51:27;;;;;;;6.82;5.38;;;;;;;20.02;69.25;101918.88;4992582;28;20059;-66
2023/08/16 05:53:52;;;;;;;8.27;4.95;;;;;;;20.04;68.25;101925.88;4990815;28;20019;-66
2023/08/16 05:56:18;;;;;;;7.72;5.10;;;;;;;20.05;68.97;101926.72;4992243;28;20030;-66
2023/08/16 05:58:44;;;;;;;5.43;4.38;;;;;;;20.10;68.58;101935.38;4985415;28;20039;-66
2023/08/16 06:01:09;;;;;;;8.25;5.45;;;;;;;20.13;68.28;101935.16;4983434;28;20486;-66
2023/08/16 06:03:34;;;;;;;7.35;5.18;;;;;;;20.24;68.58;101945.25;4994339;28;20104;-66
2023/08/16 06:06:00;;;;;;;7.70;5.10;;;;;;;20.32;68.75;101946.47;4990514;28;20206;-66
2023/08/16 06:08:25;;;;;;;6.80;5.03;;;;;;;20.30;67.23;101952.91;4991167;28;20482;-66
2023/08/16 06:10:50;;;;;;;6.45;4.55;;;;;;;20.35;67.13;101959.72;4991629;28;20121;-66
2023/08/16 06:13:16;;;;;;;9.50;5.07;;;;;;;20.50;66.09;101954.34;4988460;28;20560;-66
2023/08/16 06:15:41;;;;;;;8.43;4.93;;;;;;;20.52;68.53;101952.44;4990814;28;20106;-66
2023/08/16 06:18:06;;;;;;;6.97;4.88;;;;;;;20.51;67.10;101945.31;4986098;28;20046;-66
2023/08/16 06:20:32;;;;;;;5.28;4.47;;;;;;;20.55;67.45;101949.53;4986851;28;20548;-66
2023/08/16 06:22:57;;;;;;;6.40;5.03;;;;;;;20.57;68.13;101942.25;4991783;28;20030;-66
2023/08/16 06:25:22;;;;;;;7.45;5.28;;;;;;;20.59;67.03;101938.50;4984128;28;20491;-66
2023/08/16 06:27:48;;;;;;;6.03;5.18;;;;;;;20.61;68.67;101943.75;4993637;28;20038;-66
2023/08/16 06:30:14;;;;;;;6.40;5.30;;;;;;;20.61;66.57;101943.75;4988503;28;20109;-67
2023/08/16 06:32:39;;;;;;;6.20;4.80;;;;;;;20.71;67.14;101938.69;4990874;28;20041;-66
2023/08/16 06:35:08;;;;;;;10.52;5.00;;;;;;;20.91;66.86;101938.22;4991606;28;20429;-66
2023/08/16 06:37:33;;;;;;;7.13;4.57;;;;;;;21.05;65.58;101940.00;4983503;28;20037;-66
2023/08/16 06:39:59;;;;;;;5.65;4.93;;;;;;;21.10;65.12;101937.84;4990080;28;20022;-66
2023/08/16 06:42:24;;;;;;;6.63;4.82;;;;;;;21.08;64.95;101943.34;4986817;28;20081;-66
2023/08/16 06:44:49;;;;;;;6.05;4.70;;;;;;;21.15;65.74;101941.09;4984593;28;20038;-66
2023/08/16 06:47:15;;;;;;;6.95;4.20;;;;;;;21.22;64.33;101939.72;4986934;28;20554;-66
2023/08/16 06:49:40;;;;;;;6.75;4.65;;;;;;;21.32;64.00;101938.16;4995535;28;20026;-66
2023/08/16 06:52:05;;;;;;;5.57;3.95;;;;;;;21.37;62.81;101927.94;4988311;28;20270;-66
2023/08/16 06:54:32;;;;;;;5.50;4.13;;;;;;;21.37;62.38;101938.72;4984179;28;20038;-66
2023/08/16 06:56:57;;;;;;;6.22;4.03;;;;;;;21.35;62.20;101943.31;4989211;28;20053;-66
2023/08/16 06:59:28;;;;;;;8.60;4.20;;;;;;;21.43;61.83;101942.81;5000077;28;20037;-67
2023/08/16 07:01:53;;;;;;;5.68;3.67;;;;;;;21.48;61.80;101937.97;4985595;28;20041;-66
2023/08/16 07:04:18;;;;;;;4.93;3.60;;;;;;;21.60;61.06;101952.44;4992085;28;20022;-66
2023/08/16 07:06:44;;;;;;;4.60;3.45;;;;;;;21.69;60.94;101954.47;4985904;28;20081;-66
2023/08/16 07:09:09;;;;;;;5.40;3.25;;;;;;;21.77;61.80;101962.88;4987177;28;20030;-66
2023/08/16 07:11:34;;;;;;;5.05;2.85;;;;;;;21.89;62.44;101964.72;4990647;28;20072;-66
2023/08/16 07:14:00;;;;;;;5.75;3.08;;;;;;;21.86;61.01;101954.16;4992577;28;20026;-67
2023/08/16 07:16:25;;;;;;;6.53;3.50;;;;;;;21.95;60.95;101965.25;4987979;28;20030;-66
2023/08/16 07:18:50;;;;;;;6.70;3.42;;;;;;;21.91;60.36;101969.97;4989900;28;20030;-66
2023/08/16 07:21:17;;;;;;;6.47;3.58;;;;;;;22.00;61.44;101976.56;4986278;28;20038;-66
2023/08/16 07:23:44;;;;;;;6.22;3.60;;;;;;;22.05;59.79;101964.47;4983142;28;20022;-66
2023/08/16 07:26:10;;;;;;;6.28;3.92;;;;;;;22.10;59.55;101956.97;4987369;28;20115;-66
2023/08/16 07:28:35;;;;;;;5.88;3.40;;;;;;;22.19;59.93;101962.69;4993842;28;20030;-66
2023/08/16 07:31:00;;;;;;;7.38;3.33;;;;;;;22.28;58.54;101962.88;4990827;28;20030;-65
2023/08/16 07:33:25;;;;;;;6.70;3.33;;;;;;;22.41;59.15;101966.41;4983991;28;20275;-66
2023/08/16 07:35:51;;;;;;;7.85;3.58;;;;;;;22.55;58.19;101968.13;4989205;28;20062;-66
2023/08/16 07:38:16;;;;;;;5.20;2.60;;;;;;;22.72;59.28;101968.72;4994934;28;20126;-66
2023/08/16 07:40:48;;;;;;;5.35;3.15;;;;;;;22.94;58.41;101965.31;4988027;28;20034;-66
2023/08/16 07:43:13;;;;;;;4.55;2.40;;;;;;;23.08;56.18;101965.16;4983132;28;20031;-66
2023/08/16 07:45:39;;;;;;;7.20;2.95;;;;;;;23.32;57.11;101976.81;4984694;28;20027;-66
2023/08/16 07:48:04;;;;;;;6.75;2.88;;;;;;;23.66;54.98;101976.94;4991235;28;20084;-66
2023/08/16 07:50:29;;;;;;;13.32;3.67;;;;;;;24.07;55.67;101970.16;4984803;28;20369;-66
2023/08/16 07:52:55;;;;;;;7.68;2.75;;;;;;;24.34;54.44;101967.94;4981884;28;20177;-66
2023/08/16 07:55:22;;;;;;;9.98;3.20;;;;;;;24.61;52.89;101972.97;4984334;28;20026;-66
2023/08/16 07:57:47;;;;;;;8.05;2.60;;;;;;;24.92;51.87;101978.56;4985898;28;20546;-66
2023/08/16 08:00:14;;;;;;;12.50;3.30;;;;;;;25.25;53.02;101983.03;4987533;28;20046;-66
2023/08/16 08:02:40;;;;;;;6.53;2.63;;;;;;;25.67;49.29;101985.78;4986759;28;20033;-66
2023/08/16 08:05:06;;;;;;;5.50;2.88;;;;;;;26.00;47.77;101986.59;4986683;28;20390;-66
2023/08/16 08:07:31;;;;;;;7.28;2.80;;;;;;;25.98;47.86;101980.47;4982550;28;20563;-66
2023/08/16 08:09:57;;;;;;;2.87;2.40;;;;;;;26.12;49.34;101986.38;4997469;28;20161;-66
2023/08/16 08:12:22;;;;;;;4.07;2.50;;;;;;;26.35;47.79;101984.34;4987655;28;20621;-66
2023/08/16 08:14:48;;;;;;;4.45;2.30;;;;;;;26.44;47.92;101990.84;4985031;28;20343;-66
2023/08/16 08:17:13;;;;;;;8.50;2.63;;;;;;;26.42;46.55;101977.38;4966483;28;20120;-66
2023/08/16 08:19:38;;;;;;;21.70;6.57;;;;;;;26.70;47.39;101983.91;4987085;28;20383;-65
2023/08/16 08:22:03;;;;;;;12.37;3.97;;;;;;;26.89;45.20;101985.81;4994754;28;20064;-65
2023/08/16 08:24:29;;;;;;;10.13;4.18;;;;;;;27.09;45.22;101989.47;4982670;28;20349;-66
2023/08/16 08:26:56;;;;;;;14.05;5.07;;;;;;;27.17;45.98;101992.28;4992391;28;20374;-65
2023/08/16 08:29:23;;;;;;;12.05;4.25;;;;;;;27.36;45.19;101996.03;4989396;28;20031;-66
2023/08/16 08:31:48;;;;;;;41.10;10.25;;;;;;;27.41;44.63;101991.00;4988963;28;20056;-66
2023/08/16 08:34:14;;;;;;;28.70;7.60;;;;;;;27.66;44.27;101990.44;4987285;28;19925;-66
2023/08/16 08:36:39;;;;;;;6.82;3.17;;;;;;;27.89;44.04;101996.44;4986932;28;20033;-66
2023/08/16 08:39:04;;;;;;;4.65;2.70;;;;;;;28.14;43.81;101991.34;4988571;28;20488;-66
2023/08/16 08:41:32;;;;;;;19.05;6.15;;;;;;;28.40;42.81;101994.28;4978378;28;20031;-66
2023/08/16 08:43:58;;;;;;;3.45;2.50;;;;;;;28.68;42.75;101990.56;4991765;28;20100;-66
2023/08/16 08:46:24;;;;;;;3.72;2.50;;;;;;;29.19;42.54;101990.94;4981962;28;20066;-65
2023/08/16 08:48:49;;;;;;;3.47;2.70;;;;;;;29.79;41.04;101999.31;4992838;28;20073;-66
2023/08/16 08:51:14;;;;;;;5.68;2.75;;;;;;;30.27;38.77;101995.25;4985243;28;20390;-66
2023/08/16 08:53:40;;;;;;;8.05;2.42;;;;;;;30.68;39.17;101999.00;4989388;28;20573;-67
2023/08/16 08:56:10;;;;;;;3.67;2.33;;;;;;;30.77;39.18;101996.31;4990170;28;20042;-66
2023/08/16 08:58:39;;;;;;;3.92;2.60;;;;;;;30.16;39.35;101999.09;4994063;28;20440;-67
2023/08/16 09:01:07;;;;;;;3.70;2.28;;;;;;;29.62;39.47;101997.50;4980965;28;20022;-68
2023/08/16 09:03:34;;;;;;;4.68;2.55;;;;;;;29.14;40.73;102001.44;4987928;28;20089;-66
2023/08/16 09:05:59;;;;;;;4.13;2.92;;;;;;;29.13;41.25;101997.88;4993571;28;20050;-66
2023/08/16 09:08:26;;;;;;;4.60;2.80;;;;;;;29.35;40.70;102007.47;4985839;28;20038;-66
2023/08/16 09:10:52;;;;;;;6.50;3.13;;;;;;;29.27;40.88;102001.06;4993283;28;20101;-66
2023/08/16 09:13:18;;;;;;;6.20;3.33;;;;;;;29.46;41.76;101999.03;4985285;28;20030;-67
2023/08/16 09:15:44;;;;;;;6.32;3.10;;;;;;;29.64;40.33;101990.00;4983240;28;20469;-66
2023/08/16 09:18:11;;;;;;;4.13;2.83;;;;;;;29.94;40.16;101997.75;4986136;28;20089;-66
2023/08/16 09:20:37;;;;;;;5.18;2.40;;;;;;;31.21;38.39;101996.94;4990986;28;20034;-67
2023/08/16 09:23:03;;;;;;;5.97;3.25;;;;;;;31.90;35.90;101995.59;4979301;28;20470;-67
2023/08/16 09:25:29;;;;;;;6.20;3.22;;;;;;;31.28;36.20;102002.59;4979763;28;20044;-67
2023/08/16 09:27:54;;;;;;;5.10;3.03;;;;;;;30.73;37.69;102012.16;4987947;28;20520;-67
2023/08/16 09:30:19;;;;;;;4.03;2.47;;;;;;;29.97;39.57;102013.75;4988911;28;20089;-67
2023/08/16 09:32:47;;;;;;;4.33;3.00;;;;;;;29.44;39.78;102016.56;4981249;28;20035;-67
2023/08/16 09:35:16;;;;;;;5.43;2.95;;;;;;;29.11;42.18;102010.81;4979407;28;21432;-66
2023/08/16 09:37:44;;;;;;;4.65;3.05;;;;;;;29.10;41.79;102003.66;4987224;28;20401;-66
2023/08/16 09:40:11;;;;;;;8.18;2.80;;;;;;;29.32;41.50;102005.03;4987678;28;20069;-66
2023/08/16 09:42:36;;;;;;;5.47;3.60;;;;;;;29.04;41.98;102000.66;4994405;28;20476;-66
2023/08/16 09:45:02;;;;;;;6.75;3.30;;;;;;;29.05;42.18;102005.97;4993270;28;20085;-66
2023/08/16 09:47:30;;;;;;;8.50;3.63;;;;;;;29.05;42.13;102000.53;4982279;28;20569;-67
2023/08/16 09:50:05;;;;;;;7.50;3.40;;;;;;;28.88;42.52;101999.47;4988319;28;20540;-67
2023/08/16 09:52:32;;;;;;;4.18;2.75;;;;;;;28.81;43.19;102009.22;4987988;28;20031;-67
2023/08/16 09:54:59;;;;;;;5.00;3.20;;;;;;;28.66;44.14;102005.31;4986586;28;20109;-67
2023/08/16 09:57:25;;;;;;;3.92;3.42;;;;;;;28.41;43.78;101996.84;4977507;28;20383;-67
2023/08/16 09:59:50;;;;;;;8.18;4.13;;;;;;;28.35;45.05;102004.75;4979994;28;20026;-67
2023/08/16 10:02:16;;;;;;;5.75;3.38;;;;;;;28.36;44.05;102004.63;4972346;28;20026;-67
2023/08/16 10:04:41;;;;;;;5.90;3.67;;;;;;;28.21;43.89;102001.50;4984132;28;20033;-67
2023/08/16 10:07:08;;;;;;;4.88;3.30;;;;;;;28.10;45.96;101995.38;4989668;28;20492;-67
2023/08/16 10:09:34;;;;;;;5.55;3.33;;;;;;;27.79;45.89;102001.00;4987898;28;20392;-67
2023/08/16 10:12:03;;;;;;;5.85;3.55;;;;;;;27.63;46.54;101993.44;4980231;28;20117;-66
2023/08/16 10:14:30;;;;;;;7.05;4.03;;;;;;;27.63;46.42;101990.72;4979481;28;20381;-67
2023/08/16 10:17:01;;;;;;;6.22;3.60;;;;;;;27.66;46.20;101986.88;4989192;28;20498;-67
2023/08/16 10:19:32;;;;;;;5.30;3.20;;;;;;;27.60;45.72;101991.00;4990724;28;20053;-67
2023/08/16 10:21:59;;;;;;;5.63;3.47;;;;;;;27.61;46.25;101991.88;4984598;28;20038;-66
2023/08/16 10:24:25;;;;;;;7.00;3.10;;;;;;;27.69;46.38;101986.56;4985261;28;20023;-67
2023/08/16 10:26:53;;;;;;;5.80;3.35;;;;;;;27.61;45.63;101990.00;4974946;28;20046;-67
2023/08/16 10:29:22;;;;;;;6.25;3.50;;;;;;;27.70;46.69;101991.00;4992391;28;20542;-67
2023/08/16 10:31:51;;;;;;;6.72;3.75;;;;;;;27.74;45.59;101992.44;4987599;28;20477;-67
2023/08/16 10:34:18;;;;;;;5.13;3.22;;;;;;;27.87;44.93;101986.69;4983545;28;20504;-67
2023/08/16 10:36:44;;;;;;;6.35;3.70;;;;;;;28.14;44.46;101984.03;4986622;28;20077;-67
2023/08/16 10:39:20;;;;;;;7.47;3.92;;;;;;;28.31;45.01;101984.28;4989376;28;20033;-67
2023/08/16 10:41:46;;;;;;;7.65;2.97;;;;;;;28.58;45.10;101984.28;4983662;28;20162;-67
2023/08/16 10:44:21;;;;;;;7.00;3.60;;;;;;;28.97;43.48;101995.84;4988677;28;20112;-69
2023/08/16 10:46:46;;;;;;;6.00;3.92;;;;;;;29.28;42.02;101998.19;4986706;28;20027;-70
2023/08/16 10:49:11;;;;;;;5.53;3.25;;;;;;;29.11;43.70;101989.00;4990740;28;20033;-69
2023/08/16 10:51:45;;;;;;;7.63;3.80;;;;;;;29.00;44.06;101994.66;4987607;28;20379;-69
2023/08/16 10:54:10;;;;;;;6.03;3.40;;;;;;;28.91;44.44;101992.84;4987513;28;20779;-69
2023/08/16 10:56:44;;;;;;;5.78;3.47;;;;;;;28.91;43.35;101987.38;4992633;28;20121;-68
2023/08/16 10:59:10;;;;;;;3.72;3.10;;;;;;;28.75;44.08;101982.63;4988022;28;20157;-68
2023/08/16 11:01:50;;;;;;;4.90;3.10;;;;;;;28.51;44.53;101983.22;4987367;28;20034;-67
2023/08/16 11:04:16;;;;;;;4.85;3.03;;;;;;;28.29;44.24;101989.84;4976066;28;20066;-67
2023/08/16 11:06:41;;;;;;;5.25;2.97;;;;;;;28.39;44.29;101989.84;4992019;28;20086;-67
2023/08/16 11:09:07;;;;;;;8.63;4.45;;;;;;;28.46;44.00;101989.09;4986390;28;20029;-67
2023/08/16 11:11:33;;;;;;;4.25;3.33;;;;;;;28.48;43.97;101987.06;4993199;28;20038;-68
2023/08/16 11:14:00;;;;;;;4.90;3.75;;;;;;;28.40;44.11;101981.53;4988743;28;20469;-67
2023/08/16 11:16:25;;;;;;;7.10;3.55;;;;;;;28.34;45.11;101979.41;4984460;28;20031;-67
2023/08/16 11:18:50;;;;;;;6.75;3.40;;;;;;;28.21;45.20;101987.00;4983114;28;20041;-67